createdAt,value
2018-09-24T00:00:46.300Z,0
2018-09-24T00:01:56.292Z,0
2018-09-24T00:03:06.438Z,0
2018-09-24T00:04:16.333Z,0
2018-09-24T00:05:26.529Z,0
2018-09-24T00:06:36.707Z,0
2018-09-24T00:07:46.922Z,0
2018-09-24T00:08:57.094Z,0
2018-09-24T00:10:07.312Z,0
2018-09-24T00:11:17.430Z,0
2018-09-24T00:12:27.817Z,0
2018-09-24T00:13:37.964Z,0
2018-09-24T00:14:48.133Z,0
2018-09-24T00:15:58.269Z,0
2018-09-24T00:17:08.413Z,0
2018-09-24T00:18:18.561Z,0
2018-09-24T00:19:28.730Z,0
2018-09-24T00:20:38.867Z,0
2018-09-24T00:21:48.994Z,0
2018-09-24T00:22:58.846Z,0
2018-09-24T00:24:08.992Z,0
2018-09-24T00:25:19.215Z,0
2018-09-24T00:26:28.896Z,0
2018-09-24T00:27:39.010Z,0
2018-09-24T00:28:49.154Z,0
2018-09-24T00:29:59.343Z,0
2018-09-24T00:31:09.479Z,0
2018-09-24T00:32:19.446Z,0
2018-09-24T00:33:29.673Z,0
2018-09-24T00:34:39.869Z,0
2018-09-24T00:35:49.751Z,0
2018-09-24T00:36:59.932Z,0
2018-09-24T00:38:10.153Z,0
2018-09-24T00:39:20.283Z,0
2018-09-24T00:40:30.406Z,0
2018-09-24T00:41:40.335Z,0
2018-09-24T00:42:50.473Z,0
2018-09-24T00:44:01.189Z,0
2018-09-24T00:45:11.322Z,0
2018-09-24T00:46:21.453Z,0
2018-09-24T00:47:31.619Z,0
2018-09-24T00:48:41.786Z,0
2018-09-24T00:49:51.939Z,0
2018-09-24T00:51:01.828Z,0
2018-09-24T00:52:12.066Z,0
2018-09-24T00:53:22.293Z,0
2018-09-24T00:54:32.050Z,0
2018-09-24T00:55:42.258Z,0
2018-09-24T00:56:52.465Z,0
2018-09-24T00:58:02.651Z,0
2018-09-24T00:59:12.827Z,0
2018-09-24T01:00:22.995Z,0
2018-09-24T01:01:33.118Z,0
2018-09-24T01:02:43.452Z,0
2018-09-24T01:03:53.580Z,0
2018-09-24T01:05:03.963Z,0
2018-09-24T01:06:13.929Z,0
2018-09-24T01:07:24.116Z,0
2018-09-24T01:08:34.268Z,0
2018-09-24T01:09:44.458Z,0
2018-09-24T01:10:54.581Z,0
2018-09-24T01:12:04.983Z,0
2018-09-24T01:13:15.126Z,0
2018-09-24T01:14:25.286Z,0
2018-09-24T01:15:35.054Z,0
2018-09-24T01:16:45.299Z,0
2018-09-24T01:17:55.454Z,0
2018-09-24T01:19:05.583Z,0
2018-09-24T01:20:15.700Z,0
2018-09-24T01:21:25.829Z,0
2018-09-24T01:22:35.510Z,0
2018-09-24T01:23:45.688Z,0
2018-09-24T01:24:55.823Z,0
2018-09-24T01:26:06.064Z,0
2018-09-24T01:27:16.287Z,0
2018-09-24T01:28:26.458Z,0
2018-09-24T01:29:36.690Z,0
2018-09-24T01:30:46.839Z,0
2018-09-24T01:31:57.053Z,0
2018-09-24T01:33:07.270Z,0
2018-09-24T01:34:17.478Z,0
2018-09-24T01:35:27.355Z,0
2018-09-24T01:36:37.518Z,0
2018-09-24T01:37:47.709Z,0
2018-09-24T01:38:58.094Z,0
2018-09-24T01:40:08.007Z,0
2018-09-24T01:41:18.166Z,0
2018-09-24T01:42:28.315Z,0
2018-09-24T01:43:38.483Z,0
2018-09-24T01:44:48.637Z,0
2018-09-24T01:45:58.527Z,0
2018-09-24T01:47:08.636Z,0
2018-09-24T01:48:18.507Z,0
2018-09-24T01:49:28.630Z,0
2018-09-24T01:50:38.767Z,0
2018-09-24T01:51:48.625Z,0
2018-09-24T01:52:58.762Z,0
2018-09-24T01:54:08.877Z,0
2018-09-24T01:55:18.768Z,0
2018-09-24T01:56:28.878Z,0
2018-09-24T01:57:39.177Z,0
2018-09-24T01:58:49.316Z,0
2018-09-24T02:00:00.522Z,0
2018-09-24T02:01:10.398Z,0
2018-09-24T02:02:20.587Z,0
2018-09-24T02:03:30.470Z,0
2018-09-24T02:04:40.617Z,0
2018-09-24T02:05:50.484Z,0
2018-09-24T02:07:00.601Z,0
2018-09-24T02:08:11.003Z,0
2018-09-24T02:09:20.924Z,0
2018-09-24T02:10:30.790Z,0
2018-09-24T02:11:40.469Z,0
2018-09-24T02:12:50.610Z,0
2018-09-24T02:14:00.828Z,0
2018-09-24T02:15:11.795Z,0
2018-09-24T02:16:21.899Z,0
2018-09-24T02:17:32.004Z,0
2018-09-24T02:18:42.124Z,0
2018-09-24T02:19:52.429Z,0
2018-09-24T02:21:02.650Z,0
2018-09-24T02:22:12.517Z,0
2018-09-24T02:23:26.893Z,0
2018-09-24T02:24:37.286Z,0
2018-09-24T02:25:47.702Z,0
2018-09-24T02:26:57.877Z,0
2018-09-24T02:28:08.080Z,0
2018-09-24T02:29:18.190Z,0
2018-09-24T02:30:28.344Z,0
2018-09-24T02:31:38.507Z,0
2018-09-24T02:32:48.739Z,0
2018-09-24T02:33:58.884Z,0
2018-09-24T02:35:09.129Z,0
2018-09-24T02:36:19.284Z,0
2018-09-24T02:37:30.530Z,0
2018-09-24T02:38:40.791Z,0
2018-09-24T02:39:50.951Z,0
2018-09-24T02:41:01.198Z,0
2018-09-24T02:42:11.346Z,0
2018-09-24T02:43:21.262Z,0
2018-09-24T02:44:31.579Z,0
2018-09-24T02:45:41.467Z,0
2018-09-24T02:46:51.590Z,0
2018-09-24T02:48:01.700Z,0
2018-09-24T02:49:11.891Z,0
2018-09-24T02:50:22.017Z,0
2018-09-24T02:51:32.234Z,0
2018-09-24T02:52:42.453Z,0
2018-09-24T02:53:52.701Z,0
2018-09-24T02:55:02.861Z,0
2018-09-24T02:56:12.996Z,0
2018-09-24T02:57:23.271Z,0
2018-09-24T02:58:33.473Z,0
2018-09-24T02:59:43.910Z,0
2018-09-24T03:00:54.035Z,0
2018-09-24T03:02:03.912Z,0
2018-09-24T03:03:14.093Z,0
2018-09-24T03:04:24.311Z,0
2018-09-24T03:05:34.467Z,0
2018-09-24T03:06:44.595Z,0
2018-09-24T03:07:54.980Z,0
2018-09-24T03:09:05.213Z,0
2018-09-24T03:10:15.366Z,0
2018-09-24T03:11:25.509Z,0
2018-09-24T03:12:35.443Z,0
2018-09-24T03:13:45.365Z,0
2018-09-24T03:14:55.662Z,0
2018-09-24T03:16:05.832Z,0
2018-09-24T03:17:16.021Z,0
2018-09-24T03:18:26.132Z,0
2018-09-24T03:19:36.279Z,0
2018-09-24T03:20:46.504Z,0
2018-09-24T03:21:56.719Z,0
2018-09-24T03:23:06.857Z,0
2018-09-24T03:24:17.011Z,0
2018-09-24T03:25:27.172Z,0
2018-09-24T03:26:37.467Z,0
2018-09-24T03:27:47.825Z,0
2018-09-24T03:28:57.947Z,0
2018-09-24T03:30:08.194Z,0
2018-09-24T03:31:18.381Z,0
2018-09-24T03:32:28.366Z,0
2018-09-24T03:33:38.739Z,0
2018-09-24T03:34:48.602Z,0
2018-09-24T03:35:58.892Z,0
2018-09-24T03:37:08.744Z,0
2018-09-24T03:38:18.867Z,0
2018-09-24T03:39:28.988Z,0
2018-09-24T03:40:39.220Z,0
2018-09-24T03:41:49.657Z,0
2018-09-24T03:43:00.042Z,0
2018-09-24T03:44:09.639Z,0
2018-09-24T03:45:19.536Z,0
2018-09-24T03:46:29.424Z,0
2018-09-24T03:47:39.572Z,0
2018-09-24T03:48:49.468Z,0
2018-09-24T03:49:59.588Z,0
2018-09-24T03:51:09.709Z,0
2018-09-24T03:52:19.872Z,0
2018-09-24T03:53:30.070Z,0
2018-09-24T03:54:40.253Z,0
2018-09-24T03:55:50.170Z,0
2018-09-24T03:56:59.961Z,0
2018-09-24T03:58:10.096Z,0
2018-09-24T03:59:20.277Z,0
2018-09-24T04:00:30.459Z,0
2018-09-24T04:01:40.444Z,0
2018-09-24T04:02:50.567Z,0
2018-09-24T04:04:00.704Z,0
2018-09-24T04:05:10.484Z,0
2018-09-24T04:06:20.639Z,0
2018-09-24T04:07:30.842Z,0
2018-09-24T04:08:41.117Z,0
2018-09-24T04:09:52.126Z,0
2018-09-24T04:11:02.685Z,0
2018-09-24T04:12:12.830Z,0
2018-09-24T04:13:23.008Z,0
2018-09-24T04:14:33.066Z,0
2018-09-24T04:15:51.147Z,0
2018-09-24T04:17:04.347Z,0
2018-09-24T04:18:14.499Z,0
2018-09-24T04:19:24.797Z,0
2018-09-24T04:20:35.108Z,0
2018-09-24T04:21:45.235Z,0
2018-09-24T04:22:55.166Z,0
2018-09-24T04:24:05.296Z,0
2018-09-24T04:25:15.834Z,0
2018-09-24T04:26:26.771Z,0
2018-09-24T04:27:36.889Z,0
2018-09-24T04:28:47.016Z,0
2018-09-24T04:29:57.220Z,0
2018-09-24T04:31:07.440Z,0
2018-09-24T04:32:17.604Z,0
2018-09-24T04:33:27.727Z,0
2018-09-24T04:34:37.857Z,0
2018-09-24T04:35:47.999Z,0
2018-09-24T04:36:58.147Z,0
2018-09-24T04:38:08.310Z,0
2018-09-24T04:39:18.487Z,0
2018-09-24T04:40:28.686Z,0
2018-09-24T04:41:39.032Z,0
2018-09-24T04:42:49.219Z,0
2018-09-24T04:43:59.442Z,0
2018-09-24T04:45:09.590Z,0
2018-09-24T04:46:19.837Z,0
2018-09-24T04:47:30.037Z,0
2018-09-24T04:48:40.216Z,0
2018-09-24T04:49:50.350Z,0
2018-09-24T04:51:00.475Z,0
2018-09-24T04:52:10.633Z,0
2018-09-24T04:53:21.242Z,0
2018-09-24T04:54:31.609Z,0
2018-09-24T04:55:41.929Z,0
2018-09-24T04:56:52.491Z,0
2018-09-24T04:58:32.231Z,0
2018-09-24T04:59:42.362Z,0
2018-09-24T05:00:52.495Z,0
2018-09-24T05:02:02.918Z,5
2018-09-24T05:03:13.684Z,5
2018-09-24T05:04:23.822Z,5
2018-09-24T05:05:34.004Z,5
2018-09-24T05:06:44.142Z,5
2018-09-24T05:07:54.043Z,5
2018-09-24T05:09:04.188Z,5
2018-09-24T05:10:14.180Z,5
2018-09-24T05:11:24.331Z,10
2018-09-24T05:12:34.583Z,10
2018-09-24T05:13:44.780Z,10
2018-09-24T05:14:54.924Z,10
2018-09-24T05:16:05.295Z,10
2018-09-24T05:17:15.502Z,15
2018-09-24T05:18:25.167Z,15
2018-09-24T05:19:35.041Z,15
2018-09-24T05:20:45.547Z,15
2018-09-24T05:21:55.676Z,15
2018-09-24T05:23:05.945Z,20
2018-09-24T05:24:16.488Z,20
2018-09-24T05:25:26.599Z,20
2018-09-24T05:26:37.197Z,25
2018-09-24T05:27:47.326Z,25
2018-09-24T05:28:57.472Z,30
2018-09-24T05:30:07.588Z,30
2018-09-24T05:31:17.709Z,35
2018-09-24T05:32:28.112Z,40
2018-09-24T05:33:38.628Z,40
2018-09-24T05:34:50.144Z,35
2018-09-24T05:36:00.714Z,35
2018-09-24T05:37:10.862Z,35
2018-09-24T05:38:21.049Z,40
2018-09-24T05:39:31.193Z,40
2018-09-24T05:40:41.335Z,40
2018-09-24T05:41:51.527Z,40
2018-09-24T05:43:01.857Z,40
2018-09-24T05:44:11.622Z,40
2018-09-24T05:45:21.735Z,40
2018-09-24T05:46:31.873Z,45
2018-09-24T05:47:42.313Z,50
2018-09-24T05:48:52.556Z,55
2018-09-24T05:50:02.685Z,60
2018-09-24T05:51:12.862Z,55
2018-09-24T05:52:23.088Z,45
2018-09-24T05:53:33.305Z,45
2018-09-24T05:54:43.488Z,50
2018-09-24T05:55:53.630Z,55
2018-09-24T05:57:03.821Z,60
2018-09-24T05:58:13.642Z,60
2018-09-24T05:59:23.836Z,70
2018-09-24T06:00:34.695Z,70
2018-09-24T06:01:44.238Z,70
2018-09-24T06:02:54.194Z,65
2018-09-24T06:04:04.335Z,65
2018-09-24T06:05:14.635Z,65
2018-09-24T06:06:24.808Z,70
2018-09-24T06:07:35.019Z,70
2018-09-24T06:08:44.875Z,70
2018-09-24T06:09:55.073Z,70
2018-09-24T06:11:05.203Z,75
2018-09-24T06:12:15.383Z,70
2018-09-24T06:13:25.542Z,70
2018-09-24T06:14:35.889Z,75
2018-09-24T06:15:45.751Z,80
2018-09-24T06:16:55.872Z,80
2018-09-24T06:18:05.864Z,80
2018-09-24T06:19:16.479Z,75
2018-09-24T06:20:26.910Z,75
2018-09-24T06:21:37.138Z,70
2018-09-24T06:22:47.289Z,85
2018-09-24T06:23:57.507Z,110
2018-09-24T06:25:07.708Z,110
2018-09-24T06:26:17.884Z,100
2018-09-24T06:27:28.040Z,90
2018-09-24T06:28:38.444Z,85
2018-09-24T06:29:48.586Z,80
2018-09-24T06:30:58.692Z,80
2018-09-24T06:32:08.818Z,75
2018-09-24T06:33:18.675Z,75
2018-09-24T06:34:29.386Z,75
2018-09-24T06:35:39.269Z,75
2018-09-24T06:36:49.420Z,80
2018-09-24T06:37:59.739Z,80
2018-09-24T06:39:09.967Z,85
2018-09-24T06:40:19.870Z,90
2018-09-24T06:41:30.014Z,125
2018-09-24T06:42:40.143Z,120
2018-09-24T06:43:49.668Z,105
2018-09-24T06:44:59.793Z,100
2018-09-24T06:46:09.916Z,115
2018-09-24T06:47:20.071Z,105
2018-09-24T06:48:30.202Z,95
2018-09-24T06:49:40.668Z,85
2018-09-24T06:50:50.882Z,90
2018-09-24T06:52:00.640Z,95
2018-09-24T06:53:10.785Z,100
2018-09-24T06:54:21.014Z,110
2018-09-24T06:55:31.217Z,115
2018-09-24T06:56:41.397Z,100
2018-09-24T06:57:51.534Z,100
2018-09-24T06:59:01.780Z,90
2018-09-24T07:00:11.656Z,90
2018-09-24T07:01:21.599Z,120
2018-09-24T07:02:31.735Z,125
2018-09-24T07:03:41.893Z,125
2018-09-24T07:04:52.459Z,120
2018-09-24T07:06:02.616Z,120
2018-09-24T07:07:12.778Z,120
2018-09-24T07:08:22.972Z,85
2018-09-24T07:09:33.094Z,115
2018-09-24T07:10:43.217Z,140
2018-09-24T07:11:53.369Z,125
2018-09-24T07:13:03.541Z,160
2018-09-24T07:14:13.416Z,160
2018-09-24T07:15:23.552Z,155
2018-09-24T07:16:33.676Z,170
2018-09-24T07:17:43.856Z,170
2018-09-24T07:18:53.990Z,160
2018-09-24T07:20:04.115Z,105
2018-09-24T07:21:14.286Z,140
2018-09-24T07:22:24.410Z,165
2018-09-24T07:23:34.552Z,180
2018-09-24T07:24:44.786Z,155
2018-09-24T07:25:54.714Z,115
2018-09-24T07:27:04.839Z,195
2018-09-24T07:28:15.351Z,190
2018-09-24T07:29:25.541Z,220
2018-09-24T07:30:35.954Z,185
2018-09-24T07:31:45.874Z,160
2018-09-24T07:32:56.060Z,190
2018-09-24T07:34:06.207Z,170
2018-09-24T07:35:16.353Z,175
2018-09-24T07:36:26.488Z,170
2018-09-24T07:37:36.661Z,140
2018-09-24T07:38:46.616Z,165
2018-09-24T07:39:56.740Z,165
2018-09-24T07:41:06.881Z,175
2018-09-24T07:42:17.173Z,195
2018-09-24T07:43:27.764Z,180
2018-09-24T07:44:38.040Z,220
2018-09-24T07:45:48.125Z,215
2018-09-24T07:46:58.356Z,260
2018-09-24T07:48:08.504Z,465
2018-09-24T07:49:18.680Z,655
2018-09-24T07:50:28.801Z,700
2018-09-24T07:51:38.959Z,720
2018-09-24T07:52:49.215Z,765
2018-09-24T07:53:59.393Z,825
2018-09-24T07:55:09.572Z,875
2018-09-24T07:56:19.704Z,770
2018-09-24T07:57:29.888Z,255
2018-09-24T07:58:40.051Z,1005
2018-09-24T07:59:50.386Z,890
2018-09-24T08:01:00.552Z,550
2018-09-24T08:02:10.950Z,1015
2018-09-24T08:03:21.117Z,1030
2018-09-24T08:04:31.424Z,1190
2018-09-24T08:05:41.617Z,810
2018-09-24T08:06:51.979Z,1200
2018-09-24T08:08:01.861Z,1190
2018-09-24T08:09:12.048Z,1195
2018-09-24T08:10:22.439Z,1220
2018-09-24T08:11:32.794Z,1225
2018-09-24T08:12:42.603Z,1235
2018-09-24T08:13:52.732Z,1245
2018-09-24T08:15:02.908Z,1245
2018-09-24T08:16:13.079Z,1235
2018-09-24T08:17:23.273Z,1240
2018-09-24T08:18:34.459Z,1155
2018-09-24T08:19:44.588Z,1135
2018-09-24T08:20:54.543Z,1145
2018-09-24T08:22:04.721Z,1145
2018-09-24T08:23:14.895Z,1150
2018-09-24T08:24:25.135Z,1160
2018-09-24T08:25:35.018Z,980
2018-09-24T08:26:45.152Z,1145
2018-09-24T08:27:55.308Z,950
2018-09-24T08:29:05.675Z,915
2018-09-24T08:30:15.802Z,555
2018-09-24T08:31:25.677Z,1260
2018-09-24T08:32:35.550Z,575
2018-09-24T08:33:45.986Z,1210
2018-09-24T08:34:56.190Z,1250
2018-09-24T08:36:06.344Z,1285
2018-09-24T08:37:16.535Z,1295
2018-09-24T08:38:26.790Z,1100
2018-09-24T08:39:37.045Z,480
2018-09-24T08:40:47.303Z,675
2018-09-24T08:41:57.180Z,510
2018-09-24T08:43:07.332Z,475
2018-09-24T08:44:17.912Z,735
2018-09-24T08:45:28.073Z,1025
2018-09-24T08:46:38.404Z,480
2018-09-24T08:47:48.844Z,1035
2018-09-24T08:48:58.764Z,1380
2018-09-24T08:50:09.100Z,1390
2018-09-24T08:51:19.276Z,1470
2018-09-24T08:52:29.187Z,1470
2018-09-24T08:53:39.533Z,1450
2018-09-24T08:54:50.083Z,720
2018-09-24T08:55:59.744Z,1555
2018-09-24T08:57:09.528Z,455
2018-09-24T08:58:19.678Z,465
2018-09-24T08:59:29.843Z,255
2018-09-24T09:00:40.047Z,390
2018-09-24T09:01:50.270Z,595
2018-09-24T09:03:00.591Z,345
2018-09-24T09:04:10.724Z,340
2018-09-24T09:05:21.155Z,1515
2018-09-24T09:06:31.298Z,1505
2018-09-24T09:07:41.495Z,1500
2018-09-24T09:08:51.673Z,1610
2018-09-24T09:10:02.081Z,1530
2018-09-24T09:11:12.489Z,1525
2018-09-24T09:12:22.730Z,1520
2018-09-24T09:13:33.109Z,1555
2018-09-24T09:14:43.269Z,1635
2018-09-24T09:15:53.384Z,1565
2018-09-24T09:17:03.276Z,1605
2018-09-24T09:18:13.434Z,1020
2018-09-24T09:19:23.362Z,1240
2018-09-24T09:20:33.541Z,400
2018-09-24T09:21:43.697Z,1690
2018-09-24T09:22:53.857Z,400
2018-09-24T09:24:04.549Z,1090
2018-09-24T09:25:14.753Z,795
2018-09-24T09:26:24.936Z,535
2018-09-24T09:27:35.795Z,1025
2018-09-24T09:28:45.972Z,375
2018-09-24T09:29:56.373Z,1180
2018-09-24T09:31:06.564Z,1750
2018-09-24T09:32:16.708Z,1785
2018-09-24T09:33:26.852Z,350
2018-09-24T09:34:37.006Z,1720
2018-09-24T09:35:47.185Z,1635
2018-09-24T09:36:57.399Z,1545
2018-09-24T09:38:07.539Z,1590
2018-09-24T09:39:17.682Z,1595
2018-09-24T09:40:27.630Z,1630
2018-09-24T09:41:37.873Z,1640
2018-09-24T09:42:47.518Z,1650
2018-09-24T09:43:57.673Z,1645
2018-09-24T09:45:07.834Z,1635
2018-09-24T09:46:17.993Z,1635
2018-09-24T09:47:28.341Z,1655
2018-09-24T09:48:38.555Z,1680
2018-09-24T09:49:48.794Z,1700
2018-09-24T09:50:58.961Z,1705
2018-09-24T09:52:09.197Z,1720
2018-09-24T09:53:19.337Z,1715
2018-09-24T09:54:29.480Z,1730
2018-09-24T09:55:39.699Z,1735
2018-09-24T09:56:49.842Z,1745
2018-09-24T09:58:00.034Z,1810
2018-09-24T09:59:10.196Z,1765
2018-09-24T10:00:20.403Z,1785
2018-09-24T10:01:30.607Z,1795
2018-09-24T10:02:40.860Z,1780
2018-09-24T10:03:51.060Z,1755
2018-09-24T10:05:01.457Z,1780
2018-09-24T10:06:11.604Z,1865
2018-09-24T10:07:21.244Z,1800
2018-09-24T10:08:31.418Z,1820
2018-09-24T10:09:41.599Z,1515
2018-09-24T10:10:51.856Z,1870
2018-09-24T10:12:02.097Z,1760
2018-09-24T10:13:12.271Z,1890
2018-09-24T10:14:22.523Z,1905
2018-09-24T10:15:32.762Z,1890
2018-09-24T10:16:43.153Z,1820
2018-09-24T10:17:53.282Z,1865
2018-09-24T10:19:03.509Z,1880
2018-09-24T10:20:13.647Z,1905
2018-09-24T10:21:23.923Z,1225
2018-09-24T10:22:34.410Z,1880
2018-09-24T10:23:44.580Z,1845
2018-09-24T10:24:54.211Z,1810
2018-09-24T10:26:04.402Z,1800
2018-09-24T10:27:14.552Z,1785
2018-09-24T10:28:24.744Z,1780
2018-09-24T10:29:34.920Z,1785
2018-09-24T10:30:45.053Z,1815
2018-09-24T10:31:54.971Z,1590
2018-09-24T10:33:05.121Z,1800
2018-09-24T10:34:15.298Z,1795
2018-09-24T10:35:25.504Z,1785
2018-09-24T10:36:35.388Z,1790
2018-09-24T10:37:45.566Z,1810
2018-09-24T10:38:55.392Z,1825
2018-09-24T10:40:05.590Z,1835
2018-09-24T10:41:15.739Z,1800
2018-09-24T10:42:25.910Z,1805
2018-09-24T10:43:36.166Z,1805
2018-09-24T10:44:46.076Z,1810
2018-09-24T10:45:56.249Z,1800
2018-09-24T10:47:06.496Z,1800
2018-09-24T10:48:16.706Z,1810
2018-09-24T10:49:26.918Z,1825
2018-09-24T10:50:36.845Z,1825
2018-09-24T10:51:47.002Z,1850
2018-09-24T10:52:56.988Z,1845
2018-09-24T10:54:07.386Z,1830
2018-09-24T10:55:17.608Z,1835
2018-09-24T10:56:27.759Z,1825
2018-09-24T10:57:37.928Z,1835
2018-09-24T10:58:48.126Z,1820
2018-09-24T10:59:58.287Z,1825
2018-09-24T11:01:08.284Z,1815
2018-09-24T11:02:18.438Z,1830
2018-09-24T11:03:28.620Z,1830
2018-09-24T11:04:38.820Z,1835
2018-09-24T11:05:48.876Z,1840
2018-09-24T11:06:59.327Z,1820
2018-09-24T11:08:09.496Z,1810
2018-09-24T11:09:19.740Z,1810
2018-09-24T11:10:30.624Z,1830
2018-09-24T11:11:40.283Z,1860
2018-09-24T11:12:50.428Z,1855
2018-09-24T11:14:00.582Z,1855
2018-09-24T11:15:10.724Z,1980
2018-09-24T11:16:21.990Z,1335
2018-09-24T11:17:33.398Z,535
2018-09-24T11:18:43.757Z,2115
2018-09-24T11:19:53.587Z,520
2018-09-24T11:21:03.804Z,530
2018-09-24T11:22:14.342Z,435
2018-09-24T11:23:24.250Z,365
2018-09-24T11:24:34.430Z,525
2018-09-24T11:25:44.607Z,1380
2018-09-24T11:26:54.826Z,560
2018-09-24T11:28:05.052Z,435
2018-09-24T11:29:15.243Z,685
2018-09-24T11:30:25.424Z,550
2018-09-24T11:31:35.341Z,480
2018-09-24T11:32:45.536Z,515
2018-09-24T11:33:55.712Z,465
2018-09-24T11:35:05.852Z,360
2018-09-24T11:36:15.769Z,345
2018-09-24T11:37:25.575Z,335
2018-09-24T11:38:35.724Z,300
2018-09-24T11:39:45.887Z,315
2018-09-24T11:40:56.271Z,330
2018-09-24T11:42:07.390Z,350
2018-09-24T11:43:18.527Z,410
2018-09-24T11:44:28.738Z,425
2018-09-24T11:45:38.980Z,400
2018-09-24T11:46:49.634Z,355
2018-09-24T11:47:59.942Z,335
2018-09-24T11:49:10.159Z,435
2018-09-24T11:50:20.402Z,275
2018-09-24T11:51:30.614Z,585
2018-09-24T11:52:40.507Z,485
2018-09-24T11:53:50.644Z,460
2018-09-24T11:55:00.769Z,1055
2018-09-24T11:56:10.963Z,1090
2018-09-24T11:57:20.817Z,2140
2018-09-24T11:58:30.756Z,945
2018-09-24T11:59:40.977Z,1175
2018-09-24T12:00:51.215Z,1085
2018-09-24T12:02:01.231Z,730
2018-09-24T12:03:11.108Z,580
2018-09-24T12:04:22.219Z,1425
2018-09-24T12:05:32.344Z,2025
2018-09-24T12:06:42.521Z,1585
2018-09-24T12:07:52.718Z,1965
2018-09-24T12:09:02.863Z,1640
2018-09-24T12:10:13.409Z,1365
2018-09-24T12:11:23.666Z,1845
2018-09-24T12:12:33.851Z,1815
2018-09-24T12:13:43.983Z,1810
2018-09-24T12:14:54.123Z,1805
2018-09-24T12:16:04.314Z,1465
2018-09-24T12:17:14.180Z,1515
2018-09-24T12:18:24.346Z,1785
2018-09-24T12:19:34.489Z,390
2018-09-24T12:20:44.649Z,1860
2018-09-24T12:21:54.981Z,770
2018-09-24T12:23:05.154Z,835
2018-09-24T12:24:15.309Z,1030
2018-09-24T12:25:25.463Z,460
2018-09-24T12:26:35.693Z,530
2018-09-24T12:27:45.473Z,435
2018-09-24T12:28:55.702Z,370
2018-09-24T12:30:05.874Z,430
2018-09-24T12:31:16.309Z,445
2018-09-24T12:32:26.466Z,380
2018-09-24T12:33:36.636Z,330
2018-09-24T12:34:46.792Z,275
2018-09-24T12:35:57.151Z,235
2018-09-24T12:37:07.328Z,260
2018-09-24T12:38:17.677Z,1040
2018-09-24T12:39:28.118Z,1685
2018-09-24T12:40:38.388Z,1665
2018-09-24T12:41:48.721Z,875
2018-09-24T12:42:58.857Z,660
2018-09-24T12:44:09.053Z,425
2018-09-24T12:45:19.264Z,720
2018-09-24T12:46:29.400Z,425
2018-09-24T12:47:39.587Z,590
2018-09-24T12:48:49.757Z,1065
2018-09-24T12:50:00.126Z,1270
2018-09-24T12:51:10.019Z,1130
2018-09-24T12:52:20.205Z,1160
2018-09-24T12:53:30.729Z,1275
2018-09-24T12:54:40.997Z,1340
2018-09-24T12:55:51.280Z,870
2018-09-24T12:57:01.436Z,340
2018-09-24T12:58:11.598Z,240
2018-09-24T12:59:21.827Z,195
2018-09-24T13:00:31.503Z,195
2018-09-24T13:01:41.376Z,195
2018-09-24T13:02:51.538Z,195
2018-09-24T13:04:01.792Z,195
2018-09-24T13:05:11.960Z,170
2018-09-24T13:06:22.114Z,165
2018-09-24T13:07:32.085Z,160
2018-09-24T13:08:41.981Z,175
2018-09-24T13:09:52.117Z,205
2018-09-24T13:11:02.285Z,240
2018-09-24T13:12:12.465Z,310
2018-09-24T13:13:22.705Z,720
2018-09-24T13:14:32.995Z,495
2018-09-24T13:15:43.134Z,565
2018-09-24T13:16:53.346Z,470
2018-09-24T13:18:03.475Z,450
2018-09-24T13:19:14.247Z,790
2018-09-24T13:20:24.471Z,455
2018-09-24T13:21:34.671Z,1125
2018-09-24T13:22:44.912Z,1080
2018-09-24T13:23:55.134Z,1480
2018-09-24T13:25:05.014Z,1450
2018-09-24T13:26:15.179Z,1440
2018-09-24T13:27:25.399Z,1410
2018-09-24T13:28:35.551Z,1400
2018-09-24T13:29:45.714Z,1390
2018-09-24T13:30:55.876Z,1385
2018-09-24T13:32:06.104Z,1390
2018-09-24T13:33:16.262Z,1395
2018-09-24T13:34:26.180Z,1415
2018-09-24T13:35:36.496Z,1415
2018-09-24T13:36:46.688Z,1430
2018-09-24T13:37:56.864Z,1425
2018-09-24T13:39:06.770Z,1415
2018-09-24T13:40:16.956Z,1395
2018-09-24T13:41:27.103Z,1370
2018-09-24T13:42:37.274Z,1340
2018-09-24T13:43:47.503Z,1325
2018-09-24T13:44:57.707Z,1315
2018-09-24T13:46:07.881Z,1305
2018-09-24T13:47:18.047Z,1310
2018-09-24T13:48:28.396Z,1310
2018-09-24T13:49:38.848Z,1315
2018-09-24T13:50:48.812Z,1320
2018-09-24T13:51:58.689Z,1320
2018-09-24T13:53:09.255Z,355
2018-09-24T13:54:19.447Z,240
2018-09-24T13:55:29.600Z,195
2018-09-24T13:56:39.843Z,495
2018-09-24T13:57:50.043Z,740
2018-09-24T13:58:59.985Z,705
2018-09-24T14:00:10.145Z,245
2018-09-24T14:01:20.371Z,185
2018-09-24T14:02:30.629Z,165
2018-09-24T14:03:40.798Z,165
2018-09-24T14:04:50.972Z,170
2018-09-24T14:06:01.174Z,170
2018-09-24T14:07:11.352Z,180
2018-09-24T14:08:21.540Z,505
2018-09-24T14:09:31.768Z,200
2018-09-24T14:10:42.343Z,240
2018-09-24T14:11:52.483Z,1220
2018-09-24T14:13:02.632Z,845
2018-09-24T14:14:12.823Z,1195
2018-09-24T14:15:22.996Z,1150
2018-09-24T14:16:33.150Z,1125
2018-09-24T14:17:43.294Z,1125
2018-09-24T14:18:53.498Z,1135
2018-09-24T14:20:03.518Z,1125
2018-09-24T14:21:13.431Z,1150
2018-09-24T14:22:23.606Z,915
2018-09-24T14:23:33.738Z,230
2018-09-24T14:24:43.674Z,1130
2018-09-24T14:25:53.978Z,1120
2018-09-24T14:27:04.300Z,1140
2018-09-24T14:28:14.457Z,325
2018-09-24T14:29:24.680Z,835
2018-09-24T14:30:34.527Z,230
2018-09-24T14:31:44.676Z,340
2018-09-24T14:32:54.902Z,730
2018-09-24T14:34:05.540Z,405
2018-09-24T14:35:15.923Z,290
2018-09-24T14:36:26.112Z,345
2018-09-24T14:37:36.262Z,325
2018-09-24T14:38:46.595Z,750
2018-09-24T14:39:56.781Z,715
2018-09-24T14:41:06.960Z,710
2018-09-24T14:42:17.149Z,1050
2018-09-24T14:43:27.352Z,475
2018-09-24T14:44:37.557Z,1180
2018-09-24T14:45:47.776Z,475
2018-09-24T14:46:57.914Z,445
2018-09-24T14:48:07.428Z,455
2018-09-24T14:49:17.554Z,835
2018-09-24T14:50:27.479Z,260
2018-09-24T14:51:37.640Z,960
2018-09-24T14:52:47.810Z,915
2018-09-24T14:53:57.958Z,880
2018-09-24T14:55:08.135Z,925
2018-09-24T14:56:18.273Z,495
2018-09-24T14:57:28.192Z,120
2018-09-24T14:58:38.337Z,720
2018-09-24T14:59:48.559Z,135
2018-09-24T15:00:58.215Z,140
2018-09-24T15:02:08.096Z,810
2018-09-24T15:03:18.432Z,695
2018-09-24T15:04:28.602Z,375
2018-09-24T15:05:38.742Z,715
2018-09-24T15:06:49.360Z,805
2018-09-24T15:07:59.262Z,190
2018-09-24T15:09:09.171Z,745
2018-09-24T15:10:19.415Z,735
2018-09-24T15:11:29.887Z,540
2018-09-24T15:12:40.016Z,605
2018-09-24T15:13:50.250Z,715
2018-09-24T15:15:00.166Z,710
2018-09-24T15:16:10.070Z,145
2018-09-24T15:17:20.333Z,685
2018-09-24T15:18:30.678Z,685
2018-09-24T15:19:41.653Z,685
2018-09-24T15:20:51.875Z,675
2018-09-24T15:22:01.982Z,705
2018-09-24T15:23:12.236Z,670
2018-09-24T15:24:22.438Z,505
2018-09-24T15:25:32.603Z,710
2018-09-24T15:26:42.673Z,150
2018-09-24T15:27:53.026Z,390
2018-09-24T15:29:03.651Z,255
2018-09-24T15:30:13.647Z,95
2018-09-24T15:31:23.983Z,105
2018-09-24T15:32:34.222Z,515
2018-09-24T15:33:44.479Z,535
2018-09-24T15:34:54.409Z,585
2018-09-24T15:36:04.818Z,575
2018-09-24T15:37:15.085Z,150
2018-09-24T15:38:25.678Z,125
2018-09-24T15:39:35.576Z,90
2018-09-24T15:40:46.226Z,60
2018-09-24T15:41:56.400Z,65
2018-09-24T15:43:06.748Z,45
2018-09-24T15:44:17.027Z,40
2018-09-24T15:45:27.254Z,35
2018-09-24T15:46:38.411Z,35
2018-09-24T15:47:48.326Z,40
2018-09-24T15:48:58.821Z,45
2018-09-24T15:50:09.059Z,50
2018-09-24T15:51:19.452Z,60
2018-09-24T15:52:29.654Z,65
2018-09-24T15:53:39.691Z,65
2018-09-24T15:54:49.947Z,60
2018-09-24T15:55:59.866Z,70
2018-09-24T15:57:09.824Z,85
2018-09-24T15:58:19.744Z,75
2018-09-24T15:59:29.884Z,90
2018-09-24T16:00:39.800Z,80
2018-09-24T16:01:49.979Z,75
2018-09-24T16:03:00.242Z,75
2018-09-24T16:04:10.421Z,80
2018-09-24T16:05:20.572Z,80
2018-09-24T16:06:30.469Z,85
2018-09-24T16:07:40.643Z,70
2018-09-24T16:08:51.034Z,75
2018-09-24T16:10:01.290Z,60
2018-09-24T16:11:11.565Z,65
2018-09-24T16:12:21.769Z,70
2018-09-24T16:13:31.967Z,70
2018-09-24T16:14:42.294Z,65
2018-09-24T16:15:52.462Z,60
2018-09-24T16:17:02.741Z,55
2018-09-24T16:18:12.960Z,50
2018-09-24T16:19:23.120Z,45
2018-09-24T16:20:33.329Z,45
2018-09-24T16:21:43.598Z,40
2018-09-24T16:22:53.520Z,40
2018-09-24T16:24:03.471Z,35
2018-09-24T16:25:13.886Z,35